createdAt,value
2023-03-29T14:01:07.475Z,46.9658
2023-03-29T14:02:08.663Z,49.4031
2023-03-29T14:03:09.833Z,51.3781
2023-03-29T14:04:11.093Z,50.5736
2023-03-29T14:05:12.318Z,49.5475
2023-03-29T14:06:13.546Z,48.3594
2023-03-29T14:07:14.812Z,47.3965
2023-03-29T14:08:19.401Z,46.7176
2023-03-29T14:09:20.931Z,46.4238
2023-03-29T14:10:22.423Z,46.7047
2023-03-29T14:11:24.481Z,46.4459
2023-03-29T14:12:25.653Z,45.9473
2023-03-29T14:13:27.036Z,45.6374
2023-03-29T14:14:28.553Z,45.5522
2023-03-29T14:15:30.049Z,45.4645
2023-03-29T14:16:31.815Z,45.3035
2023-03-29T14:17:33.133Z,45.3390
2023-03-29T14:18:34.802Z,45.4553
2023-03-29T14:19:36.128Z,45.2032
2023-03-29T14:21:58.808Z,40.6710
2023-03-29T14:23:00.047Z,43.1280
2023-03-29T14:24:01.282Z,43.9292
2023-03-29T14:25:02.477Z,44.3913
2023-03-29T14:26:03.972Z,44.7479
2023-03-29T14:27:04.989Z,44.6178
2023-03-29T14:28:06.234Z,44.3628
2023-03-29T14:29:07.445Z,44.3021
2023-03-29T14:30:07.600Z,44.4555
2023-03-29T14:32:04.573Z,39.9956
2023-03-29T14:33:05.787Z,42.4119
2023-03-29T14:34:06.958Z,43.3091
2023-03-29T14:35:10.401Z,43.6741
2023-03-29T14:36:12.064Z,43.8609
2023-03-29T14:37:13.475Z,44.0049
2023-03-29T14:38:14.927Z,44.0004
2023-03-29T14:39:17.847Z,44.3322
2023-03-29T14:40:19.120Z,44.5452
2023-03-29T14:41:21.998Z,44.6858
2023-03-29T14:42:21.575Z,44.8999
2023-03-29T14:43:22.746Z,44.4645
2023-03-29T14:44:24.076Z,44.0763
2023-03-29T14:45:25.566Z,43.9058
2023-03-29T14:46:27.197Z,43.8502
2023-03-29T14:47:28.650Z,44.1887
2023-03-29T14:48:30.137Z,44.3106
2023-03-29T14:49:31.702Z,44.6796
2023-03-29T14:50:33.196Z,45.1855
2023-03-29T14:51:34.694Z,44.0509
2023-03-29T14:52:36.239Z,43.1652
2023-03-29T14:53:37.762Z,43.0209
2023-03-29T14:54:39.242Z,42.8712
2023-03-29T14:55:40.799Z,42.9014
2023-03-29T14:56:42.308Z,42.8551
2023-03-29T14:57:43.852Z,42.7281
2023-03-29T14:58:45.316Z,41.9769
2023-03-29T14:59:46.854Z,41.7240
2023-03-29T15:00:48.399Z,41.7341
2023-03-29T15:01:50.010Z,42.0502
2023-03-29T15:02:51.536Z,42.3427
2023-03-29T15:03:54.712Z,42.4127
2023-03-29T15:04:54.461Z,42.4384
2023-03-29T15:05:56.003Z,42.4565
2023-03-29T15:06:57.510Z,42.4703
2023-03-29T15:07:59.025Z,42.4855
2023-03-29T15:09:06.161Z,42.4760
2023-03-29T15:10:04.418Z,42.5225
2023-03-29T15:11:05.694Z,42.5982
2023-03-29T15:12:06.925Z,42.6258
2023-03-29T15:13:08.181Z,42.6166
2023-03-29T15:14:09.433Z,42.6068
2023-03-29T15:15:10.629Z,42.8564
2023-03-29T15:16:12.075Z,42.7309
2023-03-29T15:17:13.122Z,42.7513
2023-03-29T15:18:14.441Z,42.9264
2023-03-29T15:19:15.725Z,42.8774
2023-03-29T15:20:17.260Z,43.1566
2023-03-29T15:21:18.794Z,43.2280
2023-03-29T15:22:20.275Z,43.0736
2023-03-29T15:23:21.854Z,43.1157
2023-03-29T15:24:23.368Z,43.1090
2023-03-29T15:25:24.877Z,43.1222
2023-03-29T15:26:26.394Z,42.9807
2023-03-29T15:27:27.928Z,43.0942
2023-03-29T15:28:29.487Z,43.2811
2023-03-29T15:29:30.936Z,43.4515
2023-03-29T15:30:33.982Z,43.1082
2023-03-29T15:31:35.245Z,43.0377
2023-03-29T15:32:36.465Z,42.9961
2023-03-29T15:33:37.922Z,42.8977
2023-03-29T15:34:38.930Z,43.0720
2023-03-29T15:35:40.160Z,43.1510
2023-03-29T15:36:41.703Z,43.3035
2023-03-29T15:37:43.136Z,43.1494
2023-03-29T15:38:45.508Z,43.2115
2023-03-29T15:39:46.180Z,43.0943
2023-03-29T15:40:47.763Z,43.0604
2023-03-29T15:41:49.287Z,43.0280
2023-03-29T15:42:50.760Z,43.1112
2023-03-29T15:43:52.268Z,43.1914
2023-03-29T15:44:53.809Z,43.0495
2023-03-29T15:45:55.330Z,43.0186
2023-03-29T15:46:56.875Z,43.0513
2023-03-29T15:47:59.735Z,43.1211
2023-03-29T15:49:01.015Z,43.1717
2023-03-29T15:50:02.198Z,43.3013
2023-03-29T15:51:06.534Z,43.0441
2023-03-29T15:52:04.677Z,42.9713
2023-03-29T15:53:15.149Z,42.9984
2023-03-29T15:54:07.584Z,43.0080
2023-03-29T15:55:08.998Z,42.9835
2023-03-29T15:56:10.562Z,43.0984
2023-03-29T15:57:12.482Z,43.3047
2023-03-29T15:58:13.665Z,43.1071
2023-03-29T15:59:18.129Z,43.4042
2023-03-29T16:00:19.350Z,43.2628
2023-03-29T16:01:20.574Z,43.0813
2023-03-29T16:02:21.854Z,43.0366
2023-03-29T16:03:23.089Z,43.0531
2023-03-29T16:04:24.291Z,43.0095
2023-03-29T16:05:25.546Z,43.0136
2023-03-29T16:06:26.786Z,43.0409
2023-03-29T16:07:27.980Z,43.0002
2023-03-29T16:08:29.232Z,43.0166
2023-03-29T16:09:30.554Z,43.0102
2023-03-29T16:10:31.798Z,43.0054
2023-03-29T16:11:33.332Z,42.9987
2023-03-29T16:12:34.830Z,43.0060
2023-03-29T16:13:36.509Z,43.0205
2023-03-29T16:14:37.928Z,43.0261
2023-03-29T16:15:39.421Z,43.0646
2023-03-29T16:16:40.969Z,43.1382
2023-03-29T16:17:42.511Z,43.3030
2023-03-29T16:18:43.943Z,43.2702
2023-03-29T16:19:45.542Z,43.2803
2023-03-29T16:20:46.991Z,43.1763
2023-03-29T16:21:48.558Z,43.1787
2023-03-29T16:22:50.031Z,43.3498
2023-03-29T16:23:51.580Z,43.5420
2023-03-29T16:24:53.141Z,43.6766
2023-03-29T16:25:54.633Z,43.9693
2023-03-29T16:26:56.486Z,43.9710
2023-03-29T16:27:57.671Z,43.9813
2023-03-29T16:28:59.165Z,44.0648
2023-03-29T16:30:00.736Z,44.0382
2023-03-29T16:31:02.212Z,44.1037
2023-03-29T16:32:06.265Z,43.9669
2023-03-29T17:45:53.497Z,57.3764
2023-03-29T17:46:54.801Z,61.4300
2023-03-29T17:47:56.045Z,62.9285
2023-03-29T17:48:57.204Z,63.3050
2023-03-29T17:52:32.756Z,57.8907
2023-03-29T17:53:34.018Z,60.5841
2023-03-29T17:54:35.231Z,61.2201
2023-03-29T17:55:36.481Z,61.6628
2023-03-29T17:56:37.710Z,61.5115
2023-03-29T17:57:39.424Z,61.2730
2023-03-29T17:58:40.168Z,60.7009
2023-03-29T17:59:41.473Z,60.3302
2023-03-29T18:00:46.195Z,60.1743
2023-03-29T18:01:48.646Z,59.7770
2023-03-29T18:02:44.656Z,59.3646
2023-03-29T18:03:46.132Z,59.1769
2023-03-29T18:04:47.612Z,59.1124
2023-03-29T18:05:49.126Z,58.8720
2023-03-29T18:06:50.654Z,58.8251
2023-03-29T18:07:52.199Z,58.8459
2023-03-29T18:08:53.714Z,58.7514
2023-03-29T18:09:55.236Z,58.7798
2023-03-29T18:10:56.752Z,58.6692
2023-03-29T18:11:58.283Z,58.8189
2023-03-29T18:12:59.953Z,59.4995
2023-03-29T18:14:01.327Z,59.8821
2023-03-29T18:15:02.858Z,60.2140
2023-03-29T18:16:04.560Z,60.2489
2023-03-29T18:17:05.900Z,59.9343
2023-03-29T18:18:08.740Z,61.1352
2023-03-29T18:19:08.917Z,62.2259
2023-03-29T18:20:10.453Z,60.7449
2023-03-29T18:21:11.948Z,60.4899
2023-03-29T18:22:13.463Z,60.2295
2023-03-29T18:23:14.998Z,59.9622
2023-03-29T18:24:16.518Z,59.8411
2023-03-29T18:25:18.033Z,59.9109
2023-03-29T18:26:19.562Z,59.6931
2023-03-29T18:27:21.115Z,59.4205
2023-03-29T18:28:22.653Z,59.2403
2023-03-29T18:29:24.142Z,59.1487
2023-03-29T18:30:25.647Z,58.9101
2023-03-29T18:31:27.278Z,58.8398
2023-03-29T18:32:28.716Z,58.5406
2023-03-29T18:33:30.234Z,58.2308
2023-03-29T18:34:31.733Z,58.1782
2023-03-29T18:35:33.325Z,58.0665
2023-03-29T18:36:34.780Z,58.3248
2023-03-29T18:37:36.328Z,58.5092
2023-03-29T18:38:41.443Z,58.4574
2023-03-29T18:39:48.951Z,58.7145
2023-03-29T18:40:44.203Z,58.7925
2023-03-29T18:43:17.959Z,58.5907
2023-03-29T18:44:18.607Z,58.4456
2023-03-29T18:45:20.171Z,58.1887
2023-03-29T18:46:22.603Z,57.9868
2023-03-29T18:47:23.407Z,57.8274
2023-03-29T18:48:24.686Z,57.9626
2023-03-29T18:49:26.202Z,57.9528
2023-03-29T18:50:29.449Z,57.9306
2023-03-29T18:51:29.222Z,57.7055
2023-03-29T18:52:32.364Z,57.6335
2023-03-29T18:53:37.034Z,57.5396
2023-03-29T18:54:38.549Z,57.6197
2023-03-29T18:55:40.126Z,57.4552
2023-03-29T18:56:42.028Z,57.3378
2023-03-29T18:57:43.099Z,57.2554
2023-03-29T18:58:44.628Z,57.3509
2023-03-29T18:59:46.134Z,57.4142
2023-03-29T19:00:47.632Z,57.3861
2023-03-29T19:01:53.266Z,57.9519
2023-03-29T19:02:53.867Z,57.8532
2023-03-29T19:03:55.774Z,58.0798
2023-03-29T19:04:56.281Z,57.9489
2023-03-29T19:05:57.503Z,58.2667
2023-03-29T19:06:58.741Z,58.6594
2023-03-29T19:07:59.988Z,58.7258
2023-03-29T19:09:01.242Z,58.5818
2023-03-29T19:10:02.486Z,58.4989
2023-03-29T19:11:03.756Z,58.8084
2023-03-29T19:12:04.969Z,58.9023
2023-03-29T19:13:06.241Z,58.8684
2023-03-29T19:14:07.515Z,58.4872
2023-03-29T19:15:08.940Z,58.1987
2023-03-29T19:16:10.536Z,58.1030
2023-03-29T19:17:11.984Z,58.3244
2023-03-29T19:18:13.630Z,58.8016
2023-03-29T19:19:14.999Z,58.8627
2023-03-29T19:20:16.555Z,58.9138
2023-03-29T19:21:18.045Z,58.7735
2023-03-29T19:22:19.590Z,58.4398
2023-03-29T19:23:21.092Z,58.1177
2023-03-29T19:24:22.642Z,57.9719
2023-03-29T19:25:24.130Z,57.8498
2023-03-29T19:26:25.653Z,57.6634
2023-03-29T19:27:27.196Z,57.5194
2023-03-29T19:28:28.716Z,57.9475
2023-03-29T19:29:30.271Z,58.3194
2023-03-29T19:30:31.735Z,58.6156
2023-03-29T19:31:33.324Z,58.7722
2023-03-29T19:32:34.803Z,58.6705
2023-03-29T19:33:36.318Z,58.2612
2023-03-29T19:34:37.828Z,57.9145
2023-03-29T19:35:39.349Z,57.6591
2023-03-29T19:36:40.858Z,57.6050
2023-03-29T19:37:42.376Z,57.4705
2023-03-29T19:38:44.010Z,57.6019
2023-03-29T19:39:45.448Z,57.6497
2023-03-29T19:40:46.958Z,57.4660
2023-03-29T19:41:48.454Z,57.6530
2023-03-29T19:42:50.036Z,57.6659
2023-03-29T19:43:51.563Z,57.6809
2023-03-29T19:44:53.062Z,57.8710
2023-03-29T19:45:54.748Z,57.7591
2023-03-29T19:46:56.150Z,57.8275
2023-03-29T19:47:57.648Z,57.8958
2023-03-29T19:48:59.127Z,57.8768
2023-03-29T19:50:00.664Z,57.8879
2023-03-29T19:51:02.177Z,57.6071
2023-03-29T19:52:03.729Z,57.7165
2023-03-29T19:53:05.218Z,57.6478
2023-03-29T19:54:06.795Z,58.0924
2023-03-29T19:55:08.318Z,58.1928
2023-03-29T19:56:09.809Z,58.2644
2023-03-29T19:57:11.326Z,58.4622
2023-03-29T19:58:12.906Z,58.4628
2023-03-29T19:59:14.360Z,58.7406
2023-03-29T20:00:15.907Z,58.6806
2023-03-29T20:01:17.406Z,58.7915
2023-03-29T20:02:18.937Z,58.7320
2023-03-29T20:03:20.471Z,58.7319
2023-03-29T20:04:22.033Z,58.6097
2023-03-29T20:05:23.509Z,58.2744
2023-03-29T20:06:25.039Z,57.9178
2023-03-29T20:07:26.545Z,57.8009
2023-03-29T20:08:28.075Z,57.7530
2023-03-29T20:09:29.632Z,57.7020
2023-03-29T20:10:31.136Z,57.5483
2023-03-29T20:11:32.637Z,57.8156
2023-03-29T20:12:34.191Z,57.8957
2023-03-29T20:13:38.718Z,57.6822
2023-03-29T20:14:37.217Z,57.4984
2023-03-29T20:15:38.736Z,57.6746
2023-03-29T20:16:40.316Z,57.6383
2023-03-29T20:17:41.801Z,58.1413
2023-03-29T20:18:43.303Z,58.0527
2023-03-29T20:19:44.860Z,58.1714
2023-03-29T20:20:46.362Z,58.0706
2023-03-29T20:21:47.970Z,58.0759
2023-03-29T20:22:53.696Z,58.3257
2023-03-29T20:23:51.104Z,58.3130
2023-03-29T20:24:52.456Z,58.3231
2023-03-29T20:25:54.012Z,58.4739
2023-03-29T20:26:55.495Z,58.1394
2023-03-29T20:27:57.007Z,58.1829
2023-03-29T20:28:58.529Z,58.0667
2023-03-29T20:30:00.061Z,58.1158
2023-03-29T20:31:01.936Z,58.0981
2023-03-29T20:32:03.151Z,57.8798
2023-03-29T20:33:04.712Z,58.0585
2023-03-29T20:34:06.154Z,58.0327
2023-03-29T20:35:07.691Z,58.1428
2023-03-29T20:36:09.349Z,58.2582
2023-03-29T20:37:10.898Z,58.4098
2023-03-29T20:38:12.269Z,58.3389
2023-03-29T20:39:13.908Z,58.5502
2023-03-29T20:40:15.304Z,58.8873
2023-03-29T20:41:16.822Z,58.7989
2023-03-29T20:42:18.804Z,58.7312
2023-03-29T20:43:19.905Z,58.4212
2023-03-29T20:44:21.859Z,58.4869
2023-03-29T20:45:22.917Z,58.3297
2023-03-29T20:46:24.552Z,58.7046
2023-03-29T20:47:25.973Z,58.6659
2023-03-29T20:48:27.491Z,58.7151
2023-03-29T20:49:29.164Z,58.8071
2023-03-29T20:50:30.588Z,58.7878
2023-03-29T20:51:32.185Z,58.8420
2023-03-29T20:52:33.597Z,58.7335
2023-03-29T20:53:35.121Z,58.8590
2023-03-29T20:54:36.715Z,58.8899
2023-03-29T20:55:38.171Z,58.8976
2023-03-29T20:56:40.715Z,58.9032
2023-03-29T20:57:41.203Z,58.7803
2023-03-29T20:58:42.694Z,58.9832
2023-03-29T20:59:44.253Z,59.1189
2023-03-29T21:00:45.761Z,59.1464
2023-03-29T21:01:47.306Z,58.9493
2023-03-29T21:02:48.867Z,58.6954
2023-03-29T21:03:50.387Z,58.3947
2023-03-29T21:04:51.963Z,58.3980
2023-03-29T21:05:53.449Z,58.4050
2023-03-29T21:06:54.914Z,58.4759
2023-03-29T21:07:56.425Z,58.4666
2023-03-29T21:08:57.942Z,58.4691
2023-03-29T21:09:59.465Z,58.5744
2023-03-29T21:11:01.140Z,58.8270
2023-03-29T21:12:02.599Z,59.1127
2023-03-29T21:13:04.041Z,59.0135
2023-03-29T21:14:05.576Z,58.7432
2023-03-29T21:15:07.084Z,58.6083
2023-03-29T21:16:08.662Z,58.5218
2023-03-29T21:17:10.186Z,58.2497
2023-03-29T21:18:11.726Z,57.8937
2023-03-29T21:19:13.169Z,57.5387
2023-03-29T21:20:14.721Z,57.4141
2023-03-29T21:21:16.252Z,57.5996
2023-03-29T21:22:22.608Z,57.5042
2023-03-29T21:23:26.055Z,57.4168
2023-03-29T21:24:29.520Z,57.3496
2023-03-29T21:25:29.615Z,57.4408
2023-03-29T21:26:30.525Z,57.2794
2023-03-29T21:27:31.555Z,57.1879
2023-03-29T21:28:33.153Z,57.0352
2023-03-29T21:29:35.434Z,57.2865
2023-03-29T21:30:36.752Z,58.3132
2023-03-29T21:31:37.276Z,58.6110
2023-03-29T21:32:37.783Z,58.1225
2023-03-29T21:33:40.801Z,57.8010
2023-03-29T21:34:41.452Z,57.8924
2023-03-29T21:35:42.447Z,57.8368
2023-03-29T21:36:43.835Z,57.8990
2023-03-29T21:37:45.334Z,57.9355
2023-03-29T21:38:46.943Z,57.8610
2023-03-29T21:39:49.518Z,57.8442
2023-03-29T21:40:50.022Z,58.5623
2023-03-29T21:41:51.422Z,58.5767
2023-03-29T21:42:52.945Z,58.4959
2023-03-29T21:43:54.475Z,58.2601
2023-03-29T21:44:56.012Z,58.2311
2023-03-29T21:45:57.613Z,57.8842
2023-03-29T21:46:59.133Z,57.9174
2023-03-29T21:48:00.647Z,58.1307
2023-03-29T21:49:02.162Z,58.2543
2023-03-29T21:50:03.652Z,58.1786
2023-03-29T21:51:05.446Z,58.2130
2023-03-29T21:52:06.683Z,58.4319
2023-03-29T21:53:08.693Z,58.5116
2023-03-29T21:54:10.267Z,58.1664
2023-03-29T22:06:32.735Z,58.3669
2023-03-29T22:07:24.827Z,57.3318
2023-03-29T22:08:26.439Z,57.3269
2023-03-29T22:09:27.887Z,57.4085
2023-03-29T22:10:29.432Z,57.5447
2023-03-29T22:11:31.866Z,57.6746
2023-03-29T22:12:32.473Z,57.7631
2023-03-29T22:13:33.981Z,57.5895
2023-03-29T22:14:36.243Z,57.4831
2023-03-29T22:15:37.009Z,57.5422
2023-03-29T22:16:40.956Z,57.4904
2023-03-29T22:17:41.513Z,57.4161
2023-03-29T22:18:42.765Z,57.4570
2023-03-29T22:19:43.946Z,57.6064
2023-03-29T22:20:45.197Z,57.6533
2023-03-29T22:21:46.423Z,57.6330
2023-03-29T22:22:47.808Z,57.5499
2023-03-29T22:23:49.187Z,57.7084
2023-03-29T22:24:51.888Z,58.1430
2023-03-29T22:25:52.237Z,58.2282
2023-03-29T22:26:53.742Z,58.3326
2023-03-29T22:27:55.312Z,57.9837
2023-03-29T22:28:57.378Z,58.1206
2023-03-29T22:29:58.348Z,58.2041
2023-03-29T22:31:00.288Z,58.3224
2023-03-29T22:32:01.474Z,58.4156
2023-03-29T22:33:02.984Z,58.5793
2023-03-29T22:34:04.503Z,58.2470
2023-03-29T22:35:05.942Z,58.0724
2023-03-29T22:36:07.457Z,58.4848
2023-03-29T22:37:08.978Z,58.0544
2023-03-29T22:38:10.503Z,58.1973
2023-03-29T22:39:12.038Z,58.1833
2023-03-29T22:40:13.558Z,58.1988
2023-03-29T22:41:15.071Z,58.0017
2023-03-29T22:42:16.609Z,57.8220
2023-03-29T22:43:18.140Z,57.9361
2023-03-29T22:44:19.640Z,58.0798
2023-03-29T22:45:21.206Z,58.2261
2023-03-29T22:46:22.777Z,57.8288
2023-03-29T22:47:24.240Z,57.7651
2023-03-29T22:48:25.709Z,57.9134
2023-03-29T22:49:27.257Z,58.0443
2023-03-29T22:50:28.769Z,57.8454
2023-03-29T22:51:30.301Z,58.0021
2023-03-29T22:52:31.852Z,58.0156
2023-03-29T22:53:33.376Z,58.0145
2023-03-29T22:54:34.864Z,57.8596
2023-03-29T22:55:36.375Z,57.8036
2023-03-29T22:56:37.997Z,57.9638
2023-03-29T22:57:39.472Z,58.2213
2023-03-29T22:58:40.988Z,58.6730
2023-03-29T22:59:42.493Z,58.5200
2023-03-29T23:00:44.019Z,58.3199
2023-03-29T23:01:45.514Z,57.9557
2023-03-29T23:02:47.031Z,57.9778
2023-03-29T23:03:48.595Z,58.0064
2023-03-29T23:04:50.222Z,57.9902
2023-03-29T23:05:51.587Z,57.7822
2023-03-29T23:06:53.193Z,57.5766
2023-03-29T23:07:54.624Z,57.7471
2023-03-29T23:08:56.170Z,57.6971
2023-03-29T23:09:57.723Z,57.8100
2023-03-29T23:10:59.188Z,57.7862
2023-03-29T23:12:00.854Z,57.7321
2023-03-29T23:13:02.224Z,57.7475
2023-03-29T23:14:03.744Z,58.1629
2023-03-29T23:15:05.304Z,58.1827
2023-03-29T23:16:06.889Z,57.8009
2023-03-29T23:17:08.307Z,57.4725
2023-03-29T23:18:09.852Z,57.4485
2023-03-29T23:19:11.347Z,57.4754
2023-03-29T23:20:12.938Z,57.4755
2023-03-29T23:21:14.397Z,57.5401
2023-03-29T23:22:15.951Z,57.2074
2023-03-29T23:23:17.438Z,57.2649
2023-03-29T23:24:19.323Z,57.2101
2023-03-29T23:25:20.490Z,57.3367
2023-03-29T23:26:22.003Z,57.4531
2023-03-29T23:27:23.576Z,57.3842
2023-03-29T23:28:25.069Z,57.4118
2023-03-29T23:29:26.567Z,57.3468
2023-03-29T23:30:28.108Z,57.5121
2023-03-29T23:31:29.657Z,57.4033
2023-03-29T23:32:31.165Z,57.5776
2023-03-29T23:33:32.689Z,57.5473
2023-03-29T23:34:34.185Z,57.4469
2023-03-29T23:35:35.773Z,57.4334
2023-03-29T23:36:37.233Z,57.5801
2023-03-29T23:37:38.799Z,57.6376
2023-03-29T23:38:40.262Z,57.6859
2023-03-29T23:39:41.826Z,57.8334
2023-03-29T23:40:43.316Z,57.8056
2023-03-29T23:41:44.915Z,57.7491
2023-03-29T23:42:46.384Z,57.7974
2023-03-29T23:43:47.913Z,57.7864
2023-03-29T23:44:49.402Z,57.8290
2023-03-29T23:45:51.083Z,57.8423
2023-03-29T23:46:52.541Z,57.6519
2023-03-29T23:47:54.025Z,57.6721
2023-03-29T23:48:55.554Z,57.7897
2023-03-29T23:49:57.016Z,57.7928
2023-03-29T23:50:59.616Z,57.7771
2023-03-29T23:52:00.077Z,57.7437
2023-03-29T23:53:01.560Z,57.7086
2023-03-29T23:54:03.120Z,57.7322
2023-03-29T23:55:04.595Z,57.7391
2023-03-29T23:56:06.139Z,57.6840
2023-03-29T23:57:07.757Z,57.7539
2023-03-29T23:58:09.156Z,57.8440
2023-03-29T23:59:10.741Z,57.8380
